sensor_id;sensor_type;location;lat;lon;timestamp;P1;durP1;ratioP1;P2;durP2;ratioP2
62030;SDS011;62035;52.094;5.112;2023-09-12T00:01:05;45.67;;;27.70;;
62030;SDS011;62035;52.094;5.112;2023-09-12T00:03:33;42.53;;;26.05;;
62030;SDS011;62035;52.094;5.112;2023-09-12T00:06:02;46.35;;;24.85;;
62030;SDS011;62035;52.094;5.112;2023-09-12T00:08:31;46.25;;;26.35;;
62030;SDS011;62035;52.094;5.112;2023-09-12T00:10:59;48.35;;;27.60;;
62030;SDS011;62035;52.094;5.112;2023-09-12T00:13:27;50.63;;;28.55;;
62030;SDS011;62035;52.094;5.112;2023-09-12T00:15:55;46.63;;;28.65;;
62030;SDS011;62035;52.094;5.112;2023-09-12T00:18:22;47.80;;;28.60;;
62030;SDS011;62035;52.094;5.112;2023-09-12T00:20:50;38.13;;;24.90;;
62030;SDS011;62035;52.094;5.112;2023-09-12T00:23:17;42.47;;;23.17;;
62030;SDS011;62035;52.094;5.112;2023-09-12T00:25:46;44.78;;;26.50;;
62030;SDS011;62035;52.094;5.112;2023-09-12T00:28:14;40.90;;;26.08;;
62030;SDS011;62035;52.094;5.112;2023-09-12T00:30:41;31.45;;;19.25;;
62030;SDS011;62035;52.094;5.112;2023-09-12T00:33:08;39.38;;;22.70;;
62030;SDS011;62035;52.094;5.112;2023-09-12T00:35:35;34.05;;;20.10;;
62030;SDS011;62035;52.094;5.112;2023-09-12T00:38:03;48.92;;;28.98;;
62030;SDS011;62035;52.094;5.112;2023-09-12T00:40:31;49.22;;;29.30;;
62030;SDS011;62035;52.094;5.112;2023-09-12T00:43:00;55.22;;;28.48;;
62030;SDS011;62035;52.094;5.112;2023-09-12T00:45:27;51.10;;;29.52;;
62030;SDS011;62035;52.094;5.112;2023-09-12T00:47:55;53.10;;;31.42;;
62030;SDS011;62035;52.094;5.112;2023-09-12T00:50:25;55.42;;;31.63;;
62030;SDS011;62035;52.094;5.112;2023-09-12T00:52:53;54.03;;;31.65;;
62030;SDS011;62035;52.094;5.112;2023-09-12T00:55:21;56.65;;;31.63;;
62030;SDS011;62035;52.094;5.112;2023-09-12T00:57:49;63.53;;;33.33;;
62030;SDS011;62035;52.094;5.112;2023-09-12T01:00:19;62.40;;;34.95;;
62030;SDS011;62035;52.094;5.112;2023-09-12T01:02:47;54.83;;;31.20;;
62030;SDS011;62035;52.094;5.112;2023-09-12T01:05:15;51.65;;;27.55;;
62030;SDS011;62035;52.094;5.112;2023-09-12T01:07:43;57.15;;;31.33;;
62030;SDS011;62035;52.094;5.112;2023-09-12T01:10:11;63.47;;;33.90;;
62030;SDS011;62035;52.094;5.112;2023-09-12T01:12:38;48.90;;;26.10;;
62030;SDS011;62035;52.094;5.112;2023-09-12T01:15:06;56.45;;;29.92;;
62030;SDS011;62035;52.094;5.112;2023-09-12T01:17:41;54.85;;;30.70;;
62030;SDS011;62035;52.094;5.112;2023-09-12T01:20:10;41.05;;;22.38;;
62030;SDS011;62035;52.094;5.112;2023-09-12T01:22:46;52.20;;;30.35;;
62030;SDS011;62035;52.094;5.112;2023-09-12T01:25:42;43.63;;;23.80;;
62030;SDS011;62035;52.094;5.112;2023-09-12T01:28:20;34.00;;;22.10;;
62030;SDS011;62035;52.094;5.112;2023-09-12T01:30:51;37.35;;;22.02;;
62030;SDS011;62035;52.094;5.112;2023-09-12T01:33:19;35.63;;;20.67;;
62030;SDS011;62035;52.094;5.112;2023-09-12T01:35:47;40.88;;;23.92;;
62030;SDS011;62035;52.094;5.112;2023-09-12T01:38:14;49.17;;;30.52;;
62030;SDS011;62035;52.094;5.112;2023-09-12T01:40:43;48.70;;;25.83;;
62030;SDS011;62035;52.094;5.112;2023-09-12T01:43:15;44.03;;;24.20;;
62030;SDS011;62035;52.094;5.112;2023-09-12T01:45:45;43.95;;;26.02;;
62030;SDS011;62035;52.094;5.112;2023-09-12T01:48:14;43.78;;;25.00;;
62030;SDS011;62035;52.094;5.112;2023-09-12T01:50:45;42.15;;;25.40;;
62030;SDS011;62035;52.094;5.112;2023-09-12T01:53:13;42.78;;;23.45;;
62030;SDS011;62035;52.094;5.112;2023-09-12T01:55:41;39.85;;;23.48;;
62030;SDS011;62035;52.094;5.112;2023-09-12T01:58:09;47.30;;;24.88;;
62030;SDS011;62035;52.094;5.112;2023-09-12T02:00:37;38.85;;;23.75;;
62030;SDS011;62035;52.094;5.112;2023-09-12T02:03:06;42.70;;;26.48;;
62030;SDS011;62035;52.094;5.112;2023-09-12T02:05:33;41.15;;;24.67;;
62030;SDS011;62035;52.094;5.112;2023-09-12T02:08:01;46.45;;;26.17;;
62030;SDS011;62035;52.094;5.112;2023-09-12T02:10:30;48.50;;;26.33;;
62030;SDS011;62035;52.094;5.112;2023-09-12T02:12:58;44.20;;;24.83;;
62030;SDS011;62035;52.094;5.112;2023-09-12T02:15:25;43.88;;;26.27;;
62030;SDS011;62035;52.094;5.112;2023-09-12T02:17:52;40.95;;;22.27;;
62030;SDS011;62035;52.094;5.112;2023-09-12T02:20:21;41.38;;;22.75;;
62030;SDS011;62035;52.094;5.112;2023-09-12T02:22:48;46.40;;;27.23;;
62030;SDS011;62035;52.094;5.112;2023-09-12T02:25:15;44.28;;;24.88;;
62030;SDS011;62035;52.094;5.112;2023-09-12T02:27:43;57.80;;;32.53;;
62030;SDS011;62035;52.094;5.112;2023-09-12T02:30:10;61.63;;;33.97;;
62030;SDS011;62035;52.094;5.112;2023-09-12T02:32:37;54.05;;;32.00;;
62030;SDS011;62035;52.094;5.112;2023-09-12T02:35:05;63.85;;;35.00;;
62030;SDS011;62035;52.094;5.112;2023-09-12T02:37:34;58.33;;;32.88;;
62030;SDS011;62035;52.094;5.112;2023-09-12T02:40:01;57.65;;;33.85;;
62030;SDS011;62035;52.094;5.112;2023-09-12T02:42:29;52.47;;;29.52;;
62030;SDS011;62035;52.094;5.112;2023-09-12T02:44:57;53.45;;;27.92;;
62030;SDS011;62035;52.094;5.112;2023-09-12T02:47:24;54.03;;;30.23;;
62030;SDS011;62035;52.094;5.112;2023-09-12T02:49:51;61.15;;;34.80;;
62030;SDS011;62035;52.094;5.112;2023-09-12T02:52:18;64.65;;;34.45;;
62030;SDS011;62035;52.094;5.112;2023-09-12T02:54:47;60.40;;;34.90;;
62030;SDS011;62035;52.094;5.112;2023-09-12T02:57:14;59.72;;;34.03;;
62030;SDS011;62035;52.094;5.112;2023-09-12T02:59:42;58.08;;;33.00;;
62030;SDS011;62035;52.094;5.112;2023-09-12T03:02:09;53.38;;;30.60;;
62030;SDS011;62035;52.094;5.112;2023-09-12T03:04:36;63.17;;;34.13;;
62030;SDS011;62035;52.094;5.112;2023-09-12T03:07:03;58.17;;;33.17;;
62030;SDS011;62035;52.094;5.112;2023-09-12T03:09:31;56.70;;;31.02;;
62030;SDS011;62035;52.094;5.112;2023-09-12T03:12:01;59.80;;;32.47;;
62030;SDS011;62035;52.094;5.112;2023-09-12T03:14:29;49.53;;;30.65;;
62030;SDS011;62035;52.094;5.112;2023-09-12T03:16:56;57.08;;;32.58;;
62030;SDS011;62035;52.094;5.112;2023-09-12T03:19:23;54.30;;;31.02;;
62030;SDS011;62035;52.094;5.112;2023-09-12T03:21:51;42.30;;;24.42;;
62030;SDS011;62035;52.094;5.112;2023-09-12T03:24:18;42.10;;;24.10;;
62030;SDS011;62035;52.094;5.112;2023-09-12T03:26:47;44.75;;;25.90;;
62030;SDS011;62035;52.094;5.112;2023-09-12T03:29:16;42.75;;;26.73;;
62030;SDS011;62035;52.094;5.112;2023-09-12T03:31:43;41.90;;;25.13;;
62030;SDS011;62035;52.094;5.112;2023-09-12T03:34:10;45.85;;;27.42;;
62030;SDS011;62035;52.094;5.112;2023-09-12T03:36:37;40.03;;;23.10;;
62030;SDS011;62035;52.094;5.112;2023-09-12T03:39:05;40.67;;;23.98;;
62030;SDS011;62035;52.094;5.112;2023-09-12T03:41:34;42.75;;;25.50;;
62030;SDS011;62035;52.094;5.112;2023-09-12T03:44:01;36.10;;;23.15;;
62030;SDS011;62035;52.094;5.112;2023-09-12T03:46:30;46.05;;;26.20;;
62030;SDS011;62035;52.094;5.112;2023-09-12T03:48:57;47.42;;;26.65;;
62030;SDS011;62035;52.094;5.112;2023-09-12T03:51:24;44.88;;;25.48;;
62030;SDS011;62035;52.094;5.112;2023-09-12T03:53:52;41.60;;;24.80;;
62030;SDS011;62035;52.094;5.112;2023-09-12T03:56:19;43.50;;;25.20;;
62030;SDS011;62035;52.094;5.112;2023-09-12T03:58:46;41.05;;;23.73;;
62030;SDS011;62035;52.094;5.112;2023-09-12T04:01:14;39.88;;;23.75;;
62030;SDS011;62035;52.094;5.112;2023-09-12T04:03:43;45.72;;;26.38;;
62030;SDS011;62035;52.094;5.112;2023-09-12T04:06:13;42.65;;;25.00;;
62030;SDS011;62035;52.094;5.112;2023-09-12T04:08:40;44.63;;;26.65;;
62030;SDS011;62035;52.094;5.112;2023-09-12T04:11:07;41.47;;;24.23;;
62030;SDS011;62035;52.094;5.112;2023-09-12T04:13:36;53.28;;;30.85;;
62030;SDS011;62035;52.094;5.112;2023-09-12T04:16:03;46.47;;;26.02;;
62030;SDS011;62035;52.094;5.112;2023-09-12T04:18:30;50.17;;;26.33;;
62030;SDS011;62035;52.094;5.112;2023-09-12T04:20:59;50.00;;;26.50;;
62030;SDS011;62035;52.094;5.112;2023-09-12T04:23:26;45.20;;;25.52;;
62030;SDS011;62035;52.094;5.112;2023-09-12T04:25:53;47.50;;;29.83;;
62030;SDS011;62035;52.094;5.112;2023-09-12T04:28:21;59.42;;;31.00;;
62030;SDS011;62035;52.094;5.112;2023-09-12T04:30:48;47.78;;;30.08;;
62030;SDS011;62035;52.094;5.112;2023-09-12T04:33:15;59.10;;;31.42;;
62030;SDS011;62035;52.094;5.112;2023-09-12T04:35:42;50.75;;;28.38;;
62030;SDS011;62035;52.094;5.112;2023-09-12T04:38:11;52.03;;;29.52;;
62030;SDS011;62035;52.094;5.112;2023-09-12T04:40:38;44.47;;;25.20;;
62030;SDS011;62035;52.094;5.112;2023-09-12T04:43:06;48.47;;;28.02;;
62030;SDS011;62035;52.094;5.112;2023-09-12T04:45:33;49.05;;;28.48;;
62030;SDS011;62035;52.094;5.112;2023-09-12T04:48:00;41.83;;;24.27;;
62030;SDS011;62035;52.094;5.112;2023-09-12T04:50:28;45.97;;;26.27;;
62030;SDS011;62035;52.094;5.112;2023-09-12T04:52:55;36.15;;;20.23;;
62030;SDS011;62035;52.094;5.112;2023-09-12T04:55:23;35.65;;;22.23;;
62030;SDS011;62035;52.094;5.112;2023-09-12T04:57:51;48.10;;;26.42;;
62030;SDS011;62035;52.094;5.112;2023-09-12T05:00:18;49.65;;;26.00;;
62030;SDS011;62035;52.094;5.112;2023-09-12T05:02:45;37.22;;;22.70;;
62030;SDS011;62035;52.094;5.112;2023-09-12T05:05:12;40.25;;;20.98;;
62030;SDS011;62035;52.094;5.112;2023-09-12T05:07:40;39.50;;;23.75;;
62030;SDS011;62035;52.094;5.112;2023-09-12T05:10:07;44.50;;;23.02;;
62030;SDS011;62035;52.094;5.112;2023-09-12T05:12:36;40.13;;;20.33;;
62030;SDS011;62035;52.094;5.112;2023-09-12T05:15:03;36.10;;;21.23;;
62030;SDS011;62035;52.094;5.112;2023-09-12T05:17:31;36.17;;;20.75;;
62030;SDS011;62035;52.094;5.112;2023-09-12T05:19:58;36.22;;;22.02;;
62030;SDS011;62035;52.094;5.112;2023-09-12T05:22:26;30.67;;;18.42;;
62030;SDS011;62035;52.094;5.112;2023-09-12T05:24:54;40.05;;;24.00;;
62030;SDS011;62035;52.094;5.112;2023-09-12T05:27:21;28.90;;;18.52;;
62030;SDS011;62035;52.094;5.112;2023-09-12T05:29:50;41.75;;;23.58;;
62030;SDS011;62035;52.094;5.112;2023-09-12T05:32:17;44.42;;;25.33;;
62030;SDS011;62035;52.094;5.112;2023-09-12T05:34:45;39.97;;;22.05;;
62030;SDS011;62035;52.094;5.112;2023-09-12T05:37:15;35.95;;;21.30;;
62030;SDS011;62035;52.094;5.112;2023-09-12T05:39:42;40.60;;;22.83;;
62030;SDS011;62035;52.094;5.112;2023-09-12T05:42:09;43.45;;;22.42;;
62030;SDS011;62035;52.094;5.112;2023-09-12T05:44:37;42.35;;;23.27;;
62030;SDS011;62035;52.094;5.112;2023-09-12T05:47:06;37.20;;;21.02;;
62030;SDS011;62035;52.094;5.112;2023-09-12T05:49:33;36.42;;;21.75;;
62030;SDS011;62035;52.094;5.112;2023-09-12T05:52:01;33.45;;;19.50;;
62030;SDS011;62035;52.094;5.112;2023-09-12T05:54:28;32.35;;;18.65;;
62030;SDS011;62035;52.094;5.112;2023-09-12T05:56:55;37.13;;;21.27;;
62030;SDS011;62035;52.094;5.112;2023-09-12T05:59:23;35.20;;;21.08;;
62030;SDS011;62035;52.094;5.112;2023-09-12T06:01:50;31.10;;;16.80;;
62030;SDS011;62035;52.094;5.112;2023-09-12T06:04:19;27.35;;;15.85;;
62030;SDS011;62035;52.094;5.112;2023-09-12T06:06:46;38.17;;;18.95;;
62030;SDS011;62035;52.094;5.112;2023-09-12T06:09:13;29.48;;;17.55;;
62030;SDS011;62035;52.094;5.112;2023-09-12T06:11:41;26.67;;;16.55;;
62030;SDS011;62035;52.094;5.112;2023-09-12T06:14:08;38.30;;;20.42;;
62030;SDS011;62035;52.094;5.112;2023-09-12T06:16:35;35.60;;;17.67;;
62030;SDS011;62035;52.094;5.112;2023-09-12T06:19:02;30.17;;;16.60;;
62030;SDS011;62035;52.094;5.112;2023-09-12T06:21:31;31.75;;;18.70;;
62030;SDS011;62035;52.094;5.112;2023-09-12T06:24:08;33.92;;;19.13;;
62030;SDS011;62035;52.094;5.112;2023-09-12T06:26:37;29.70;;;16.40;;
62030;SDS011;62035;52.094;5.112;2023-09-12T06:29:04;30.95;;;14.85;;
62030;SDS011;62035;52.094;5.112;2023-09-12T06:31:31;35.42;;;18.35;;
62030;SDS011;62035;52.094;5.112;2023-09-12T06:33:59;31.40;;;18.50;;
62030;SDS011;62035;52.094;5.112;2023-09-12T06:36:26;31.88;;;19.83;;
62030;SDS011;62035;52.094;5.112;2023-09-12T06:38:56;27.25;;;16.05;;
62030;SDS011;62035;52.094;5.112;2023-09-12T06:41:24;35.67;;;19.33;;
62030;SDS011;62035;52.094;5.112;2023-09-12T06:43:51;32.33;;;17.92;;
62030;SDS011;62035;52.094;5.112;2023-09-12T06:46:19;34.15;;;18.25;;
62030;SDS011;62035;52.094;5.112;2023-09-12T06:48:46;33.70;;;18.35;;
62030;SDS011;62035;52.094;5.112;2023-09-12T06:51:14;35.20;;;19.08;;
62030;SDS011;62035;52.094;5.112;2023-09-12T06:53:42;30.23;;;17.20;;
62030;SDS011;62035;52.094;5.112;2023-09-12T06:56:10;31.58;;;17.38;;
62030;SDS011;62035;52.094;5.112;2023-09-12T06:58:38;40.50;;;21.45;;
62030;SDS011;62035;52.094;5.112;2023-09-12T07:01:05;42.15;;;22.17;;
62030;SDS011;62035;52.094;5.112;2023-09-12T07:03:33;44.88;;;23.65;;
62030;SDS011;62035;52.094;5.112;2023-09-12T07:06:02;43.88;;;24.45;;
62030;SDS011;62035;52.094;5.112;2023-09-12T07:08:31;43.78;;;22.02;;
62030;SDS011;62035;52.094;5.112;2023-09-12T07:10:58;40.50;;;22.85;;
62030;SDS011;62035;52.094;5.112;2023-09-12T07:13:32;45.08;;;24.30;;
62030;SDS011;62035;52.094;5.112;2023-09-12T07:16:00;43.25;;;21.90;;
62030;SDS011;62035;52.094;5.112;2023-09-12T07:18:29;42.30;;;22.50;;
62030;SDS011;62035;52.094;5.112;2023-09-12T07:20:58;40.30;;;21.88;;
62030;SDS011;62035;52.094;5.112;2023-09-12T07:23:26;40.90;;;21.20;;
62030;SDS011;62035;52.094;5.112;2023-09-12T07:25:54;44.20;;;22.35;;
62030;SDS011;62035;52.094;5.112;2023-09-12T07:28:23;47.30;;;22.50;;
62030;SDS011;62035;52.094;5.112;2023-09-12T07:30:51;52.55;;;24.13;;
62030;SDS011;62035;52.094;5.112;2023-09-12T07:33:19;41.67;;;22.40;;
62030;SDS011;62035;52.094;5.112;2023-09-12T07:35:47;40.15;;;22.90;;
62030;SDS011;62035;52.094;5.112;2023-09-12T07:38:14;52.03;;;25.13;;
62030;SDS011;62035;52.094;5.112;2023-09-12T07:40:42;52.42;;;25.83;;
62030;SDS011;62035;52.094;5.112;2023-09-12T07:43:09;49.75;;;23.75;;
62030;SDS011;62035;52.094;5.112;2023-09-12T07:45:36;56.45;;;28.10;;
62030;SDS011;62035;52.094;5.112;2023-09-12T07:48:05;56.67;;;28.20;;
62030;SDS011;62035;52.094;5.112;2023-09-12T07:50:33;46.60;;;22.35;;
62030;SDS011;62035;52.094;5.112;2023-09-12T07:53:01;60.70;;;29.08;;
62030;SDS011;62035;52.094;5.112;2023-09-12T07:55:28;58.90;;;28.33;;
62030;SDS011;62035;52.094;5.112;2023-09-12T07:58:01;44.47;;;21.90;;
62030;SDS011;62035;52.094;5.112;2023-09-12T08:00:29;54.30;;;26.60;;
62030;SDS011;62035;52.094;5.112;2023-09-12T08:02:56;55.88;;;26.98;;
62030;SDS011;62035;52.094;5.112;2023-09-12T08:05:25;42.78;;;21.55;;
62030;SDS011;62035;52.094;5.112;2023-09-12T08:07:52;47.60;;;23.13;;
62030;SDS011;62035;52.094;5.112;2023-09-12T08:10:20;45.75;;;22.90;;
62030;SDS011;62035;52.094;5.112;2023-09-12T08:12:48;49.00;;;25.38;;
62030;SDS011;62035;52.094;5.112;2023-09-12T08:15:15;56.15;;;26.90;;
62030;SDS011;62035;52.094;5.112;2023-09-12T08:17:42;47.67;;;24.08;;
62030;SDS011;62035;52.094;5.112;2023-09-12T08:20:10;61.47;;;30.83;;
62030;SDS011;62035;52.094;5.112;2023-09-12T08:22:39;57.63;;;29.00;;
62030;SDS011;62035;52.094;5.112;2023-09-12T08:25:06;46.75;;;25.67;;
62030;SDS011;62035;52.094;5.112;2023-09-12T08:27:34;51.20;;;26.83;;
62030;SDS011;62035;52.094;5.112;2023-09-12T08:30:01;52.53;;;25.80;;
62030;SDS011;62035;52.094;5.112;2023-09-12T08:32:29;51.85;;;26.55;;
62030;SDS011;62035;52.094;5.112;2023-09-12T08:34:56;61.28;;;30.88;;
62030;SDS011;62035;52.094;5.112;2023-09-12T08:37:24;41.80;;;22.83;;
62030;SDS011;62035;52.094;5.112;2023-09-12T08:39:54;62.17;;;30.58;;
62030;SDS011;62035;52.094;5.112;2023-09-12T08:42:24;59.75;;;29.70;;
62030;SDS011;62035;52.094;5.112;2023-09-12T08:44:53;45.00;;;25.10;;
62030;SDS011;62035;52.094;5.112;2023-09-12T08:47:21;48.15;;;27.20;;
62030;SDS011;62035;52.094;5.112;2023-09-12T08:49:49;56.13;;;29.88;;
62030;SDS011;62035;52.094;5.112;2023-09-12T08:52:17;57.85;;;29.45;;
62030;SDS011;62035;52.094;5.112;2023-09-12T08:54:44;60.15;;;30.42;;
62030;SDS011;62035;52.094;5.112;2023-09-12T08:57:13;55.30;;;28.38;;
62030;SDS011;62035;52.094;5.112;2023-09-12T08:59:41;56.60;;;29.77;;
62030;SDS011;62035;52.094;5.112;2023-09-12T09:02:10;43.03;;;22.88;;
62030;SDS011;62035;52.094;5.112;2023-09-12T09:04:38;49.00;;;28.25;;
62030;SDS011;62035;52.094;5.112;2023-09-12T09:07:07;55.20;;;28.63;;
62030;SDS011;62035;52.094;5.112;2023-09-12T09:09:36;53.03;;;30.23;;
62030;SDS011;62035;52.094;5.112;2023-09-12T09:12:06;54.72;;;30.42;;
62030;SDS011;62035;52.094;5.112;2023-09-12T09:14:35;42.75;;;24.70;;
62030;SDS011;62035;52.094;5.112;2023-09-12T09:17:03;51.05;;;25.88;;
62030;SDS011;62035;52.094;5.112;2023-09-12T09:19:39;36.30;;;21.23;;
62030;SDS011;62035;52.094;5.112;2023-09-12T09:22:08;46.72;;;26.23;;
62030;SDS011;62035;52.094;5.112;2023-09-12T09:24:35;46.63;;;26.73;;
62030;SDS011;62035;52.094;5.112;2023-09-12T09:27:03;39.63;;;22.10;;
62030;SDS011;62035;52.094;5.112;2023-09-12T09:29:30;42.38;;;24.15;;
62030;SDS011;62035;52.094;5.112;2023-09-12T09:32:00;41.92;;;24.20;;
62030;SDS011;62035;52.094;5.112;2023-09-12T09:34:27;37.28;;;22.00;;
62030;SDS011;62035;52.094;5.112;2023-09-12T09:36:56;44.33;;;22.85;;
62030;SDS011;62035;52.094;5.112;2023-09-12T09:39:25;43.47;;;23.25;;
62030;SDS011;62035;52.094;5.112;2023-09-12T09:41:55;33.30;;;21.27;;
62030;SDS011;62035;52.094;5.112;2023-09-12T09:44:24;36.47;;;20.60;;
62030;SDS011;62035;52.094;5.112;2023-09-12T09:46:54;43.83;;;24.67;;
62030;SDS011;62035;52.094;5.112;2023-09-12T09:49:24;45.58;;;26.10;;
62030;SDS011;62035;52.094;5.112;2023-09-12T09:51:51;41.00;;;25.17;;
62030;SDS011;62035;52.094;5.112;2023-09-12T09:54:23;34.78;;;19.70;;
62030;SDS011;62035;52.094;5.112;2023-09-12T09:56:52;40.10;;;22.83;;
62030;SDS011;62035;52.094;5.112;2023-09-12T09:59:22;43.47;;;25.67;;
62030;SDS011;62035;52.094;5.112;2023-09-12T10:01:52;44.28;;;25.70;;
62030;SDS011;62035;52.094;5.112;2023-09-12T10:04:25;50.30;;;24.10;;
62030;SDS011;62035;52.094;5.112;2023-09-12T10:09:22;43.25;;;23.15;;
62030;SDS011;62035;52.094;5.112;2023-09-12T10:11:53;43.53;;;24.90;;
62030;SDS011;62035;52.094;5.112;2023-09-12T10:14:22;43.47;;;25.35;;
62030;SDS011;62035;52.094;5.112;2023-09-12T10:16:54;36.92;;;21.30;;
62030;SDS011;62035;52.094;5.112;2023-09-12T10:19:30;47.90;;;26.15;;
62030;SDS011;62035;52.094;5.112;2023-09-12T10:22:06;32.40;;;21.17;;
62030;SDS011;62035;52.094;5.112;2023-09-12T10:24:36;44.70;;;23.92;;
62030;SDS011;62035;52.094;5.112;2023-09-12T10:27:05;39.05;;;23.50;;
62030;SDS011;62035;52.094;5.112;2023-09-12T10:29:33;27.90;;;18.13;;
62030;SDS011;62035;52.094;5.112;2023-09-12T10:32:01;37.78;;;22.35;;
62030;SDS011;62035;52.094;5.112;2023-09-12T10:34:31;33.03;;;20.60;;
62030;SDS011;62035;52.094;5.112;2023-09-12T10:36:59;43.70;;;25.52;;
62030;SDS011;62035;52.094;5.112;2023-09-12T10:39:27;43.30;;;24.33;;
62030;SDS011;62035;52.094;5.112;2023-09-12T10:41:56;41.58;;;22.67;;
62030;SDS011;62035;52.094;5.112;2023-09-12T10:44:25;30.55;;;18.55;;
62030;SDS011;62035;52.094;5.112;2023-09-12T10:46:53;31.08;;;18.00;;
62030;SDS011;62035;52.094;5.112;2023-09-12T10:49:21;38.75;;;23.83;;
62030;SDS011;62035;52.094;5.112;2023-09-12T10:51:50;40.30;;;24.02;;
62030;SDS011;62035;52.094;5.112;2023-09-12T10:54:22;38.38;;;22.38;;
62030;SDS011;62035;52.094;5.112;2023-09-12T10:57:01;30.65;;;19.50;;
62030;SDS011;62035;52.094;5.112;2023-09-12T10:59:30;35.47;;;23.05;;
62030;SDS011;62035;52.094;5.112;2023-09-12T11:04:57;26.90;;;18.10;;
62030;SDS011;62035;52.094;5.112;2023-09-12T11:07:32;38.72;;;20.85;;
62030;SDS011;62035;52.094;5.112;2023-09-12T11:10:15;31.45;;;19.58;;
62030;SDS011;62035;52.094;5.112;2023-09-12T11:12:47;31.30;;;18.60;;
62030;SDS011;62035;52.094;5.112;2023-09-12T11:15:15;25.65;;;16.25;;
62030;SDS011;62035;52.094;5.112;2023-09-12T11:17:43;26.58;;;16.20;;
62030;SDS011;62035;52.094;5.112;2023-09-12T11:20:11;32.97;;;20.75;;
62030;SDS011;62035;52.094;5.112;2023-09-12T11:22:42;31.40;;;20.23;;
62030;SDS011;62035;52.094;5.112;2023-09-12T11:25:17;34.83;;;21.40;;
62030;SDS011;62035;52.094;5.112;2023-09-12T11:27:46;29.13;;;19.70;;
62030;SDS011;62035;52.094;5.112;2023-09-12T11:30:30;31.83;;;18.58;;
62030;SDS011;62035;52.094;5.112;2023-09-12T11:32:57;26.55;;;18.27;;
62030;SDS011;62035;52.094;5.112;2023-09-12T11:35:27;33.13;;;19.00;;
62030;SDS011;62035;52.094;5.112;2023-09-12T11:37:57;32.83;;;18.75;;
62030;SDS011;62035;52.094;5.112;2023-09-12T11:40:27;33.03;;;18.50;;
62030;SDS011;62035;52.094;5.112;2023-09-12T11:43:17;31.90;;;17.58;;
62030;SDS011;62035;52.094;5.112;2023-09-12T11:45:49;21.80;;;14.45;;
62030;SDS011;62035;52.094;5.112;2023-09-12T11:48:18;24.40;;;17.15;;
62030;SDS011;62035;52.094;5.112;2023-09-12T11:50:49;21.20;;;14.50;;
62030;SDS011;62035;52.094;5.112;2023-09-12T11:53:22;24.58;;;17.27;;
62030;SDS011;62035;52.094;5.112;2023-09-12T11:55:52;25.25;;;16.52;;
62030;SDS011;62035;52.094;5.112;2023-09-12T11:58:21;27.02;;;17.05;;
62030;SDS011;62035;52.094;5.112;2023-09-12T12:00:49;25.63;;;16.58;;
62030;SDS011;62035;52.094;5.112;2023-09-12T12:03:39;26.48;;;15.63;;
62030;SDS011;62035;52.094;5.112;2023-09-12T12:06:06;24.75;;;14.27;;
62030;SDS011;62035;52.094;5.112;2023-09-12T12:08:35;28.10;;;15.60;;
62030;SDS011;62035;52.094;5.112;2023-09-12T12:11:03;23.10;;;15.05;;
62030;SDS011;62035;52.094;5.112;2023-09-12T12:13:32;29.80;;;18.52;;
62030;SDS011;62035;52.094;5.112;2023-09-12T12:15:59;16.60;;;12.00;;
62030;SDS011;62035;52.094;5.112;2023-09-12T12:18:27;21.02;;;14.13;;
62030;SDS011;62035;52.094;5.112;2023-09-12T12:20:55;27.70;;;17.45;;
62030;SDS011;62035;52.094;5.112;2023-09-12T12:23:23;28.52;;;17.00;;
62030;SDS011;62035;52.094;5.112;2023-09-12T12:25:50;25.95;;;16.80;;
62030;SDS011;62035;52.094;5.112;2023-09-12T12:28:18;22.35;;;14.32;;
62030;SDS011;62035;52.094;5.112;2023-09-12T12:30:45;20.17;;;13.45;;
62030;SDS011;62035;52.094;5.112;2023-09-12T12:33:13;24.35;;;14.82;;
62030;SDS011;62035;52.094;5.112;2023-09-12T12:35:40;22.50;;;13.75;;
62030;SDS011;62035;52.094;5.112;2023-09-12T12:38:09;23.45;;;14.02;;
62030;SDS011;62035;52.094;5.112;2023-09-12T12:40:39;22.25;;;14.75;;
62030;SDS011;62035;52.094;5.112;2023-09-12T12:43:15;29.67;;;15.45;;
62030;SDS011;62035;52.094;5.112;2023-09-12T12:45:51;24.00;;;15.98;;
62030;SDS011;62035;52.094;5.112;2023-09-12T12:48:28;21.15;;;14.90;;
62030;SDS011;62035;52.094;5.112;2023-09-12T12:50:56;19.23;;;13.73;;
62030;SDS011;62035;52.094;5.112;2023-09-12T12:53:38;25.52;;;15.90;;
62030;SDS011;62035;52.094;5.112;2023-09-12T12:56:05;25.38;;;15.52;;
62030;SDS011;62035;52.094;5.112;2023-09-12T12:58:33;29.77;;;18.17;;
62030;SDS011;62035;52.094;5.112;2023-09-12T13:01:00;24.65;;;16.40;;
62030;SDS011;62035;52.094;5.112;2023-09-12T13:03:28;24.92;;;15.63;;
62030;SDS011;62035;52.094;5.112;2023-09-12T13:05:56;24.40;;;14.90;;
62030;SDS011;62035;52.094;5.112;2023-09-12T13:08:24;26.88;;;13.38;;
62030;SDS011;62035;52.094;5.112;2023-09-12T13:10:53;29.35;;;15.07;;
62030;SDS011;62035;52.094;5.112;2023-09-12T13:13:21;25.17;;;14.05;;
62030;SDS011;62035;52.094;5.112;2023-09-12T13:15:48;18.38;;;11.77;;
62030;SDS011;62035;52.094;5.112;2023-09-12T13:18:15;14.50;;;8.98;;
62030;SDS011;62035;52.094;5.112;2023-09-12T13:20:43;10.07;;;5.53;;
62030;SDS011;62035;52.094;5.112;2023-09-12T13:23:10;16.83;;;5.70;;
62030;SDS011;62035;52.094;5.112;2023-09-12T13:25:38;6.32;;;4.10;;
62030;SDS011;62035;52.094;5.112;2023-09-12T13:28:06;10.65;;;4.18;;
62030;SDS011;62035;52.094;5.112;2023-09-12T13:30:34;7.60;;;4.25;;
62030;SDS011;62035;52.094;5.112;2023-09-12T13:33:01;8.68;;;4.38;;
62030;SDS011;62035;52.094;5.112;2023-09-12T13:35:29;7.55;;;4.47;;
62030;SDS011;62035;52.094;5.112;2023-09-12T13:37:57;9.75;;;5.20;;
62030;SDS011;62035;52.094;5.112;2023-09-12T13:40:24;10.98;;;6.30;;
62030;SDS011;62035;52.094;5.112;2023-09-12T13:42:53;14.05;;;6.07;;
62030;SDS011;62035;52.094;5.112;2023-09-12T13:45:22;9.50;;;5.55;;
62030;SDS011;62035;52.094;5.112;2023-09-12T13:47:49;10.95;;;6.68;;
62030;SDS011;62035;52.094;5.112;2023-09-12T13:50:16;9.75;;;5.22;;
62030;SDS011;62035;52.094;5.112;2023-09-12T13:52:43;8.18;;;4.75;;
62030;SDS011;62035;52.094;5.112;2023-09-12T13:55:11;13.02;;;5.00;;
62030;SDS011;62035;52.094;5.112;2023-09-12T13:57:40;8.93;;;5.35;;
62030;SDS011;62035;52.094;5.112;2023-09-12T14:00:07;10.77;;;5.95;;
62030;SDS011;62035;52.094;5.112;2023-09-12T14:02:36;9.43;;;6.00;;
62030;SDS011;62035;52.094;5.112;2023-09-12T14:05:03;11.38;;;7.22;;
62030;SDS011;62035;52.094;5.112;2023-09-12T14:07:31;15.95;;;8.88;;
62030;SDS011;62035;52.094;5.112;2023-09-12T14:09:58;10.25;;;6.18;;
62030;SDS011;62035;52.094;5.112;2023-09-12T14:12:25;7.43;;;4.30;;
62030;SDS011;62035;52.094;5.112;2023-09-12T14:14:52;9.32;;;5.25;;
62030;SDS011;62035;52.094;5.112;2023-09-12T14:17:20;6.55;;;4.38;;
62030;SDS011;62035;52.094;5.112;2023-09-12T14:19:48;8.82;;;4.97;;
62030;SDS011;62035;52.094;5.112;2023-09-12T14:22:16;6.60;;;3.83;;
62030;SDS011;62035;52.094;5.112;2023-09-12T14:24:43;5.10;;;3.30;;
62030;SDS011;62035;52.094;5.112;2023-09-12T14:27:10;5.45;;;3.08;;
62030;SDS011;62035;52.094;5.112;2023-09-12T14:29:37;4.80;;;2.72;;
62030;SDS011;62035;52.094;5.112;2023-09-12T14:32:05;5.82;;;3.05;;
62030;SDS011;62035;52.094;5.112;2023-09-12T14:34:32;7.45;;;3.35;;
62030;SDS011;62035;52.094;5.112;2023-09-12T14:37:01;5.47;;;3.20;;